Time;durP1;ratioP1;P1;durP2;ratioP2;P2;SDS_P1;SDS_P2;PMS_P1;PMS_P2;Temp;Humidity;BMP_temperature;BMP_pressure;BME280_temperature;BME280_humidity;BME280_pressure;Samples;Min_cycle;Max_cycle;Signal;HPM_P1;HPM_P2
2022/11/16 00:03:47;;;;;;;6.20;3.05;;;11.90;99.90;;;;;;10433122;28;20102;-61
2022/11/16 00:14:10;;;;;;;4.43;3.10;;;11.90;99.90;;;;;;10445076;28;20028;-61
2022/11/16 00:19:12;;;;;;;4.55;3.25;;;11.90;99.90;;;;;;10434734;28;20066;-64
2022/11/16 00:24:14;;;;;;;4.45;3.10;;;11.90;99.90;;;;;;10423782;28;20082;-61
2022/11/16 00:29:23;;;;;;;4.47;2.92;;;11.90;99.90;;;;;;10434850;28;20430;-61
2022/11/16 00:34:24;;;;;;;5.57;3.58;;;11.90;99.90;;;;;;10437455;28;20017;-61
2022/11/16 00:39:25;;;;;;;4.28;3.05;;;11.90;99.90;;;;;;10442383;28;20486;-69
2022/11/16 00:44:26;;;;;;;4.70;3.20;;;11.90;99.90;;;;;;10456252;28;20052;-61
2022/11/16 00:49:26;;;;;;;5.18;2.92;;;11.90;99.90;;;;;;10442849;28;20424;-61
2022/11/16 00:54:27;;;;;;;6.50;3.38;;;11.90;99.90;;;;;;10442220;28;20488;-69
2022/11/16 00:59:28;;;;;;;5.22;3.40;;;11.90;99.90;;;;;;10444536;28;20044;-61
2022/11/16 01:04:28;;;;;;;5.90;3.35;;;11.90;99.90;;;;;;10446908;28;20029;-68
2022/11/16 01:09:29;;;;;;;6.05;3.50;;;11.90;99.90;;;;;;10425790;28;20456;-65
2022/11/16 01:14:29;;;;;;;5.72;3.47;;;11.90;99.90;;;;;;10440839;28;20088;-64
2022/11/16 01:19:30;;;;;;;5.82;3.50;;;11.90;99.90;;;;;;10461425;28;20163;-62
2022/11/16 01:24:31;;;;;;;6.00;3.33;;;11.90;99.90;;;;;;10447355;28;20040;-61
2022/11/16 01:29:32;;;;;;;7.32;4.03;;;11.90;99.90;;;;;;10474298;28;20404;-61
2022/11/16 01:34:33;;;;;;;5.93;3.67;;;11.90;99.90;;;;;;10436272;28;20025;-61
2022/11/16 01:39:33;;;;;;;5.53;3.67;;;11.90;99.90;;;;;;10450120;28;20048;-67
2022/11/16 01:44:34;;;;;;;6.07;4.03;;;11.90;99.90;;;;;;10435050;28;20030;-60
2022/11/16 01:49:39;;;;;;;7.15;4.15;;;11.90;99.90;;;;;;10462124;28;20385;-60
2022/11/16 01:54:44;;;;;;;5.90;4.00;;;11.90;99.90;;;;;;10435092;28;20045;-60
2022/11/16 01:59:47;;;;;;;7.47;3.88;;;11.90;99.90;;;;;;10456973;28;20078;-60
2022/11/16 02:04:51;;;;;;;6.57;4.10;;;11.90;99.90;;;;;;10435381;28;20042;-60
2022/11/16 02:10:18;;;;;;;6.35;3.72;;;12.00;99.90;;;;;;10448281;28;20033;-61
2022/11/16 02:15:34;;;;;;;6.95;3.80;;;11.90;99.90;;;;;;10447514;28;20048;-59
2022/11/16 02:20:46;;;;;;;6.88;4.18;;;12.00;99.90;;;;;;10441857;28;20127;-62
2022/11/16 02:26:14;;;;;;;6.07;3.97;;;12.00;99.90;;;;;;10456948;28;20478;-61
2022/11/16 02:31:23;;;;;;;6.63;4.22;;;12.00;99.90;;;;;;10449286;28;20553;-68
2022/11/16 02:36:24;;;;;;;6.00;4.07;;;12.00;99.90;;;;;;10446281;28;20040;-59
2022/11/16 02:41:27;;;;;;;7.03;4.30;;;12.00;99.90;;;;;;10440643;28;20496;-60
2022/11/16 02:46:34;;;;;;;7.95;4.68;;;12.00;99.90;;;;;;10446647;28;20045;-62
2022/11/16 02:51:37;;;;;;;7.95;4.60;;;12.00;99.90;;;;;;10445898;28;20013;-61
2022/11/16 02:56:49;;;;;;;6.50;4.35;;;12.00;99.90;;;;;;10445528;28;20041;-60
2022/11/16 03:02:06;;;;;;;7.07;4.80;;;12.00;99.90;;;;;;10448660;28;20168;-67
2022/11/16 03:07:11;;;;;;;9.75;4.68;;;12.00;99.90;;;;;;10445213;28;20009;-66
2022/11/16 03:12:17;;;;;;;7.80;4.90;;;12.00;99.90;;;;;;10443635;28;20029;-65
2022/11/16 03:17:23;;;;;;;6.65;4.50;;;12.00;99.90;;;;;;10444940;28;20067;-59
2022/11/16 03:22:32;;;;;;;7.78;4.70;;;12.00;99.90;;;;;;10440782;28;20022;-60
2022/11/16 03:27:53;;;;;;;7.35;4.30;;;12.00;99.90;;;;;;10424846;28;20020;-61
2022/11/16 03:33:06;;;;;;;9.57;4.75;;;12.00;99.90;;;;;;10426559;28;20029;-62
2022/11/16 03:38:09;;;;;;;8.88;4.53;;;12.00;99.90;;;;;;10455213;28;20550;-60
2022/11/16 03:43:10;;;;;;;6.45;4.18;;;12.00;99.90;;;;;;10446769;28;20085;-60
2022/11/16 03:48:11;;;;;;;7.88;4.30;;;12.00;99.90;;;;;;10443413;28;20033;-61
2022/11/16 03:53:11;;;;;;;7.15;4.35;;;12.00;99.90;;;;;;10427384;28;20390;-60
2022/11/16 03:58:12;;;;;;;7.50;4.88;;;12.00;99.90;;;;;;10429512;28;20029;-60
2022/11/16 04:03:13;;;;;;;9.52;5.07;;;12.00;99.90;;;;;;10447861;28;20017;-63
2022/11/16 04:24:22;;;;;;;5.60;3.67;;;12.00;99.90;;;;;;10443404;28;20017;-65
2022/11/16 04:29:23;;;;;;;5.43;3.95;;;12.00;99.90;;;;;;10428384;28;20142;-63
2022/11/16 04:39:43;;;;;;;5.97;4.20;;;12.00;99.90;;;;;;10452302;28;20047;-61
2022/11/16 04:50:03;;;;;;;6.57;4.28;;;12.00;99.90;;;;;;10442037;28;20433;-65
2022/11/16 04:55:06;;;;;;;4.93;3.88;;;12.00;99.90;;;;;;10430997;28;20546;-61
2022/11/16 05:00:07;;;;;;;5.93;4.10;;;12.00;99.90;;;;;;10441947;28;20049;-61
2022/11/16 05:05:09;;;;;;;6.95;4.22;;;12.00;99.90;;;;;;10455721;28;20146;-69
2022/11/16 05:10:10;;;;;;;4.70;3.50;;;12.00;99.90;;;;;;10454018;28;20025;-61
2022/11/16 05:15:11;;;;;;;5.50;3.70;;;12.10;99.90;;;;;;10454368;28;20040;-62
2022/11/16 05:25:31;;;;;;;6.15;4.03;;;12.10;99.90;;;;;;10442907;28;20025;-65
2022/11/16 05:30:32;;;;;;;5.75;3.58;;;12.00;99.90;;;;;;10435848;28;20021;-61
2022/11/16 05:35:32;;;;;;;6.25;4.00;;;12.00;99.90;;;;;;10435316;28;20033;-61
2022/11/16 05:40:33;;;;;;;6.38;4.03;;;12.10;99.90;;;;;;10449060;28;20037;-65
2022/11/16 05:45:34;;;;;;;6.00;4.00;;;12.00;99.90;;;;;;10448482;28;20094;-61
2022/11/16 05:50:35;;;;;;;5.32;3.60;;;12.10;99.90;;;;;;10443814;28;20367;-65
2022/11/16 05:55:35;;;;;;;5.50;3.80;;;12.10;99.90;;;;;;10448201;28;20148;-60
2022/11/16 06:00:36;;;;;;;5.65;3.65;;;12.00;99.90;;;;;;10450679;28;20623;-60
2022/11/16 06:05:37;;;;;;;4.65;3.60;;;12.00;99.90;;;;;;10448398;28;20393;-60
2022/11/16 06:10:37;;;;;;;5.53;3.50;;;12.10;99.90;;;;;;10452818;28;20233;-62
2022/11/16 06:15:39;;;;;;;4.50;3.60;;;12.10;99.90;;;;;;10447189;28;20517;-60
2022/11/16 06:20:40;;;;;;;5.40;3.60;;;12.10;99.90;;;;;;10451265;28;20040;-62
2022/11/16 06:25:41;;;;;;;5.25;3.47;;;12.10;99.90;;;;;;10440108;28;20414;-61
2022/11/16 06:30:42;;;;;;;4.43;3.20;;;12.10;99.90;;;;;;10451943;28;20119;-60
2022/11/16 06:35:42;;;;;;;5.20;3.70;;;12.10;99.90;;;;;;10446598;28;20086;-61
2022/11/16 06:40:51;;;;;;;5.53;3.58;;;12.10;99.90;;;;;;10453499;28;20140;-62
2022/11/16 06:45:54;;;;;;;4.32;3.13;;;12.10;99.90;;;;;;10423597;28;20041;-61
2022/11/16 06:50:55;;;;;;;3.95;2.97;;;12.10;99.90;;;;;;10446175;28;20043;-64
2022/11/16 06:56:11;;;;;;;4.45;2.88;;;12.10;99.90;;;;;;10437183;28;20029;-61
2022/11/16 07:01:11;;;;;;;4.82;3.05;;;12.10;99.90;;;;;;10446905;28;20055;-61
2022/11/16 07:06:13;;;;;;;4.45;3.10;;;12.10;99.90;;;;;;10436722;28;20037;-61
2022/11/16 07:11:13;;;;;;;5.40;2.63;;;12.10;99.90;;;;;;10438771;28;20261;-60
2022/11/16 07:16:14;;;;;;;5.28;2.67;;;12.10;99.90;;;;;;10417757;28;20063;-61
2022/11/16 07:21:16;;;;;;;3.65;2.53;;;12.10;99.90;;;;;;10412909;28;20029;-62
2022/11/16 07:26:17;;;;;;;3.95;2.97;;;12.10;99.90;;;;;;10411825;28;20437;-60
2022/11/16 07:31:18;;;;;;;4.40;2.80;;;12.10;99.90;;;;;;10413458;28;20030;-61
2022/11/16 07:36:19;;;;;;;3.17;2.25;;;12.10;99.90;;;;;;10412501;28;20055;-63
2022/11/16 07:41:20;;;;;;;3.33;2.10;;;12.10;99.90;;;;;;10415595;28;20024;-61
2022/11/16 07:46:22;;;;;;;4.68;2.95;;;12.10;99.90;;;;;;10414261;28;20025;-65
2022/11/16 07:51:23;;;;;;;3.30;1.98;;;12.10;99.90;;;;;;10405966;28;20087;-61
2022/11/16 07:56:24;;;;;;;3.53;2.20;;;12.10;99.90;;;;;;10410603;28;20024;-61
2022/11/16 08:01:24;;;;;;;3.85;2.30;;;12.10;99.90;;;;;;10368724;28;20414;-61
2022/11/16 08:06:27;;;;;;;4.60;2.42;;;12.10;99.90;;;;;;10364175;28;20032;-61
2022/11/16 08:11:28;;;;;;;3.85;2.33;;;12.40;99.90;;;;;;10358987;28;21032;-64
2022/11/16 08:16:28;;;;;;;3.28;2.22;;;12.20;99.90;;;;;;10353266;28;20107;-67
2022/11/16 08:21:29;;;;;;;7.78;2.80;;;12.20;99.90;;;;;;10345434;28;20448;-60
2022/11/16 08:26:30;;;;;;;3.42;2.58;;;12.20;99.90;;;;;;10355220;28;20540;-61
2022/11/16 08:31:31;;;;;;;3.70;2.50;;;12.20;99.90;;;;;;10361928;28;20632;-62
2022/11/16 08:36:32;;;;;;;3.92;2.42;;;12.20;99.90;;;;;;10338292;28;20282;-62
2022/11/16 08:41:34;;;;;;;5.28;2.45;;;12.20;99.90;;;;;;10370409;28;20599;-68
2022/11/16 08:46:35;;;;;;;3.63;2.53;;;12.20;99.90;;;;;;10357348;28;20022;-65
2022/11/16 08:51:36;;;;;;;3.20;2.38;;;12.20;99.90;;;;;;10360039;28;20037;-63
2022/11/16 08:56:37;;;;;;;6.15;2.60;;;12.30;99.90;;;;;;10352466;28;20052;-60
2022/11/16 09:01:37;;;;;;;4.53;2.85;;;12.40;99.90;;;;;;10368204;28;20029;-62
2022/11/16 09:06:38;;;;;;;5.75;3.10;;;12.40;99.90;;;;;;10355057;28;20025;-61
2022/11/16 09:11:39;;;;;;;4.43;3.00;;;12.40;99.90;;;;;;10354215;28;20037;-61
2022/11/16 09:16:40;;;;;;;5.65;3.10;;;12.40;99.90;;;;;;10357128;28;20170;-61
2022/11/16 09:21:41;;;;;;;7.68;3.28;;;12.50;99.90;;;;;;10356789;28;20517;-62
2022/11/16 09:26:42;;;;;;;4.47;3.20;;;12.50;99.90;;;;;;10368136;28;20091;-61
2022/11/16 09:31:43;;;;;;;7.53;3.50;;;12.50;99.90;;;;;;10349596;28;20485;-60
2022/11/16 09:36:43;;;;;;;6.78;3.63;;;12.50;99.90;;;;;;10359446;28;20468;-67
2022/11/16 09:42:07;;;;;;;6.70;3.40;;;12.50;99.90;;;;;;10366233;28;20540;-61
2022/11/16 09:47:20;;;;;;;7.90;3.60;;;12.60;99.90;;;;;;10359410;28;20032;-65
2022/11/16 09:52:31;;;;;;;8.05;3.72;;;12.60;99.90;;;;;;10359152;28;20112;-61
2022/11/16 09:57:36;;;;;;;6.60;3.40;;;12.60;99.90;;;;;;10349633;28;20040;-62
2022/11/16 10:03:04;;;;;;;6.53;3.78;;;12.60;99.90;;;;;;10363504;28;20029;-62
2022/11/16 10:08:45;;;;;;;7.50;4.20;;;12.60;99.90;;;;;;10360663;28;20027;-61
2022/11/16 10:14:05;;;;;;;9.13;3.83;;;12.60;99.90;;;;;;10357212;28;20562;-61
2022/11/16 10:19:08;;;;;;;7.75;3.25;;;12.60;99.90;;;;;;10370879;28;20147;-61
2022/11/16 10:24:27;;;;;;;6.93;3.47;;;12.60;99.90;;;;;;10372841;28;20286;-61
2022/11/16 10:29:45;;;;;;;;;;;12.60;99.90;;;;;;10369915;28;20025;-61
2022/11/16 10:34:53;;;;;;;9.40;3.80;;;12.60;99.90;;;;;;10373086;28;19913;-62
2022/11/16 10:39:53;;;;;;;5.03;2.77;;;12.60;99.90;;;;;;10362248;28;20212;-62
2022/11/16 10:45:02;;;;;;;4.57;2.70;;;12.50;99.90;;;;;;10353563;28;20037;-62
2022/11/16 10:50:59;;;;;;;6.72;2.33;;;12.40;99.90;;;;;;10368548;28;20036;-63
2022/11/16 10:56:05;;;;;;;8.88;2.47;;;12.30;99.90;;;;;;10297376;28;20505;-63
2022/11/16 11:01:09;;;;;;;7.60;2.60;;;12.10;99.90;;;;;;10359973;28;20448;-63
2022/11/16 11:06:10;;;;;;;5.88;2.65;;;11.90;99.90;;;;;;10362095;28;20032;-63
2022/11/16 11:16:40;;;;;;;6.22;1.98;;;11.90;99.90;;;;;;10358648;28;20588;-63
2022/11/16 11:21:41;;;;;;;11.80;3.08;;;12.00;99.90;;;;;;10361818;28;20383;-69
2022/11/16 11:26:42;;;;;;;6.20;2.47;;;12.10;99.90;;;;;;10367285;28;20017;-62
2022/11/16 11:31:47;;;;;;;7.35;3.45;;;12.10;99.90;;;;;;10357790;28;20041;-63
2022/11/16 11:36:54;;;;;;;9.85;3.35;;;12.20;99.90;;;;;;10356870;28;20305;-63
2022/11/16 11:42:01;;;;;;;7.13;3.15;;;12.30;99.90;;;;;;10355361;28;20124;-63
2022/11/16 11:47:43;;;;;;;9.45;2.90;;;12.20;99.90;;;;;;10340139;28;20829;-63
2022/11/16 11:53:07;;;;;;;8.32;3.10;;;12.20;99.90;;;;;;10311981;28;20392;-64
2022/11/16 11:58:15;;;;;;;7.03;3.05;;;12.20;99.90;;;;;;10355031;28;20028;-63
2022/11/16 12:03:42;;;;;;;13.83;2.93;;;12.20;99.90;;;;;;10351844;28;20139;-66
2022/11/16 12:09:17;;;;;;;6.60;2.50;;;12.20;99.90;;;;;;10355454;28;20380;-66
2022/11/16 12:14:48;;;;;;;5.60;2.17;;;12.30;99.90;;;;;;10361541;28;20036;-62
2022/11/16 12:20:01;;;;;;;6.68;1.83;;;12.20;99.90;;;;;;10360593;28;20211;-61
2022/11/16 12:25:37;;;;;;;7.95;2.38;;;12.10;99.90;;;;;;10335022;28;20033;-62
2022/11/16 12:31:19;;;;;;;9.23;2.53;;;12.10;99.90;;;;;;10329100;28;20441;-61
2022/11/16 12:36:43;;;;;;;5.30;2.28;;;12.10;99.90;;;;;;10322954;28;20351;-61
2022/11/16 12:41:49;;;;;;;3.20;2.05;;;12.10;99.90;;;;;;10338746;28;20419;-62
2022/11/16 12:47:28;;;;;;;7.85;2.20;;;12.10;99.90;;;;;;10374516;28;20040;-62
2022/11/16 12:52:31;;;;;;;;;;;12.10;99.90;;;;;;10353411;28;20051;-63
2022/11/16 12:57:43;;;;;;;12.30;1.90;;;12.10;99.90;;;;;;10369644;28;20443;-63
2022/11/16 13:03:15;;;;;;;8.05;1.80;;;12.20;99.90;;;;;;10362059;28;20028;-62
2022/11/16 13:08:49;;;;;;;3.95;1.92;;;12.20;99.90;;;;;;10354683;28;20036;-63
2022/11/16 13:13:55;;;;;;;3.17;1.83;;;12.20;99.90;;;;;;10337844;28;20041;-62
2022/11/16 13:18:58;;;;;;;6.75;2.30;;;12.10;99.90;;;;;;10361041;28;20061;-62
2022/11/16 13:24:04;;;;;;;7.85;2.00;;;12.00;99.90;;;;;;10365533;28;20060;-63
2022/11/16 13:29:32;;;;;;;6.50;1.75;;;12.00;99.90;;;;;;10372141;28;20134;-63
2022/11/16 13:34:37;;;;;;;9.33;2.07;;;11.90;99.90;;;;;;10352436;28;20018;-68
2022/11/16 13:40:10;;;;;;;8.63;1.73;;;11.90;99.90;;;;;;10357119;28;20893;-63
2022/11/16 13:45:20;;;;;;;4.07;2.03;;;11.90;99.90;;;;;;10348822;28;20378;-62
2022/11/16 13:50:28;;;;;;;5.75;1.60;;;11.80;99.90;;;;;;10336133;28;20497;-63
2022/11/16 13:55:34;;;;;;;10.53;2.13;;;11.80;99.90;;;;;;10346789;28;20476;-66
2022/11/16 14:00:38;;;;;;;11.20;1.60;;;11.80;99.90;;;;;;10317143;28;20064;-62
2022/11/16 14:05:41;;;;;;;5.90;1.38;;;11.70;99.90;;;;;;10338401;28;20540;-62
2022/11/16 14:10:51;;;;;;;13.43;1.95;;;11.60;99.90;;;;;;10332160;28;20363;-62
2022/11/16 14:16:24;;;;;;;5.82;1.60;;;11.60;99.90;;;;;;10340914;28;20604;-65
2022/11/16 14:21:25;;;;;;;5.75;1.60;;;11.50;99.90;;;;;;10358021;28;20437;-62
2022/11/16 14:26:41;;;;;;;3.58;1.42;;;11.50;99.90;;;;;;10360812;28;20041;-65
2022/11/16 14:31:59;;;;;;;10.07;2.47;;;11.70;99.90;;;;;;10350169;28;20285;-62
2022/11/16 14:37:00;;;;;;;;;;;11.80;99.90;;;;;;10351603;28;20173;-63
2022/11/16 14:42:06;;;;;;;4.82;1.80;;;11.80;99.90;;;;;;10349260;28;20847;-62
2022/11/16 14:47:27;;;;;;;7.68;1.60;;;11.70;99.90;;;;;;10338708;28;20860;-61
2022/11/16 14:52:43;;;;;;;7.68;1.83;;;11.70;99.90;;;;;;10353073;28;20572;-67
2022/11/16 14:57:44;;;;;;;10.35;1.83;;;11.60;99.90;;;;;;10365882;28;20210;-62
2022/11/16 15:02:47;;;;;;;8.55;2.00;;;11.50;99.90;;;;;;10359620;28;20440;-65
2022/11/16 15:07:51;;;;;;;5.20;1.92;;;11.50;99.90;;;;;;10354115;28;20049;-64
2022/11/16 15:12:55;;;;;;;10.77;1.88;;;11.50;99.90;;;;;;10365021;28;20117;-64
2022/11/16 15:17:58;;;;;;;4.00;1.60;;;11.40;99.90;;;;;;10366855;28;20051;-64
2022/11/16 15:23:01;;;;;;;5.57;1.80;;;11.30;99.90;;;;;;10355241;28;20072;-64
2022/11/16 15:28:23;;;;;;;3.85;1.80;;;11.30;99.90;;;;;;10346372;28;20191;-66
2022/11/16 15:33:34;;;;;;;6.68;1.73;;;11.20;99.90;;;;;;10326970;28;20904;-64
2022/11/16 15:38:37;;;;;;;4.97;1.80;;;11.10;99.90;;;;;;10357815;28;20646;-63
2022/11/16 15:43:48;;;;;;;1.77;1.15;;;11.10;99.90;;;;;;10357160;28;20025;-66
2022/11/16 15:48:49;;;;;;;6.40;2.28;;;11.10;99.90;;;;;;10360738;28;20365;-63
2022/11/16 15:53:54;;;;;;;3.90;1.20;;;11.00;99.90;;;;;;10337654;28;20064;-66
2022/11/16 15:58:59;;;;;;;6.18;1.65;;;11.00;99.90;;;;;;10362893;28;20441;-59
2022/11/16 16:04:06;;;;;;;5.40;1.73;;;11.00;99.90;;;;;;10356879;28;20487;-60
2022/11/16 16:09:20;;;;;;;4.70;1.40;;;11.20;99.90;;;;;;10335335;28;20140;-59
2022/11/16 16:14:28;;;;;;;4.88;1.83;;;11.30;99.90;;;;;;10391025;28;20392;-60
2022/11/16 16:19:34;;;;;;;4.90;1.87;;;11.40;99.90;;;;;;10410021;28;20044;-59
2022/11/16 16:24:39;;;;;;;5.95;1.50;;;11.50;99.90;;;;;;10411688;28;20025;-60
2022/11/16 16:29:41;;;;;;;3.45;1.40;;;11.60;99.90;;;;;;10421694;28;20044;-59
2022/11/16 16:34:42;;;;;;;6.07;1.63;;;11.60;99.90;;;;;;10443142;28;20075;-59
2022/11/16 16:39:42;;;;;;;4.63;1.42;;;11.60;99.90;;;;;;10430713;28;20601;-59
2022/11/16 16:44:44;;;;;;;2.15;1.50;;;11.60;99.90;;;;;;10431119;28;20021;-60
2022/11/16 16:49:46;;;;;;;3.65;1.30;;;11.70;99.90;;;;;;10413497;28;20133;-59
2022/11/16 16:54:46;;;;;;;5.95;1.40;;;11.70;99.90;;;;;;10431271;28;20055;-62
2022/11/16 16:59:48;;;;;;;4.38;1.60;;;11.70;99.90;;;;;;10455177;28;20136;-60
2022/11/16 17:04:48;;;;;;;5.18;1.65;;;11.70;99.90;;;;;;10449240;28;20469;-60
2022/11/16 17:09:49;;;;;;;2.22;1.27;;;11.70;99.90;;;;;;10449731;28;20040;-60
2022/11/16 17:14:50;;;;;;;3.92;1.50;;;11.70;99.90;;;;;;10445033;28;20049;-60
2022/11/16 17:19:52;;;;;;;3.40;1.30;;;11.70;99.90;;;;;;10452933;28;20086;-61
2022/11/16 17:24:52;;;;;;;3.55;1.25;;;11.70;99.90;;;;;;10448925;28;20359;-60
2022/11/16 17:29:53;;;;;;;3.90;1.80;;;11.80;99.90;;;;;;10447916;28;20047;-62
2022/11/16 17:34:54;;;;;;;3.75;1.40;;;11.70;99.90;;;;;;10448254;28;20401;-63
2022/11/16 17:39:54;;;;;;;3.20;2.30;;;11.80;99.90;;;;;;10456991;28;20044;-61
2022/11/16 17:44:55;;;;;;;7.78;2.05;;;11.70;99.90;;;;;;10442739;28;20079;-60
2022/11/16 17:49:56;;;;;;;5.90;1.98;;;11.70;99.90;;;;;;10432436;28;20433;-60
2022/11/16 17:54:56;;;;;;;2.88;1.90;;;11.70;99.90;;;;;;10438133;28;20478;-60
2022/11/16 17:59:57;;;;;;;5.72;2.03;;;11.70;99.90;;;;;;10437220;28;20060;-60
2022/11/16 18:04:58;;;;;;;5.38;1.90;;;11.70;99.90;;;;;;10439918;28;20508;-60
2022/11/16 18:09:59;;;;;;;5.97;2.15;;;11.70;99.90;;;;;;10441881;28;20096;-63
2022/11/16 18:14:59;;;;;;;4.07;2.13;;;11.70;99.90;;;;;;10437246;28;20120;-61
2022/11/16 18:20:00;;;;;;;7.25;2.17;;;11.70;99.90;;;;;;10432858;28;20347;-62
2022/11/16 18:25:01;;;;;;;4.22;2.00;;;11.70;99.90;;;;;;10411302;28;20045;-63
2022/11/16 18:30:02;;;;;;;4.00;2.00;;;11.70;99.90;;;;;;10434030;28;20517;-61
2022/11/16 18:35:08;;;;;;;7.78;2.03;;;11.70;99.90;;;;;;10433886;28;20035;-60
2022/11/16 18:40:10;;;;;;;4.07;1.98;;;11.70;99.90;;;;;;10417412;28;20532;-60
2022/11/16 18:45:11;;;;;;;2.80;1.67;;;11.70;99.90;;;;;;10418985;28;20482;-60
2022/11/16 18:50:12;;;;;;;3.95;1.80;;;11.70;99.90;;;;;;10416387;28;20033;-60
2022/11/16 18:55:13;;;;;;;3.97;1.65;;;11.60;99.90;;;;;;10413678;28;20013;-61
2022/11/16 19:00:14;;;;;;;2.88;2.03;;;11.70;99.90;;;;;;10413689;28;20042;-61
2022/11/16 19:05:15;;;;;;;5.85;1.73;;;11.70;99.90;;;;;;10431026;28;20151;-60
2022/11/16 19:10:15;;;;;;;5.15;2.10;;;11.70;99.90;;;;;;10419792;28;20026;-62
2022/11/16 19:15:16;;;;;;;4.80;1.85;;;11.70;99.90;;;;;;10449028;28;20120;-60
2022/11/16 19:20:17;;;;;;;7.85;2.20;;;11.60;99.90;;;;;;10443107;28;20040;-60
2022/11/16 19:25:18;;;;;;;5.32;2.40;;;11.60;99.90;;;;;;10456116;28;20055;-60
2022/11/16 19:30:19;;;;;;;4.05;2.00;;;11.60;99.90;;;;;;10454844;28;20076;-60
2022/11/16 19:35:21;;;;;;;6.40;1.98;;;11.60;99.90;;;;;;10441853;28;20108;-61
2022/11/16 19:40:22;;;;;;;4.70;2.30;;;11.60;99.90;;;;;;10444757;28;20044;-61
2022/11/16 19:45:22;;;;;;;2.85;2.00;;;11.60;99.90;;;;;;10442622;28;20026;-60
2022/11/16 19:50:24;;;;;;;4.82;1.95;;;11.60;99.90;;;;;;10416235;28;20029;-61
2022/11/16 19:55:24;;;;;;;7.55;2.20;;;11.60;99.90;;;;;;10416499;28;20164;-59
2022/11/16 20:00:25;;;;;;;4.63;2.08;;;11.60;99.90;;;;;;10433826;28;20087;-60
2022/11/16 20:05:28;;;;;;;2.92;1.88;;;11.60;99.90;;;;;;10438037;28;20107;-60
2022/11/16 20:10:29;;;;;;;3.15;2.00;;;11.50;99.90;;;;;;10434956;28;20488;-60
2022/11/16 20:15:30;;;;;;;2.78;1.88;;;11.50;99.90;;;;;;10433605;28;20041;-60
2022/11/16 20:20:31;;;;;;;4.72;2.08;;;11.50;99.90;;;;;;10435005;28;20045;-61
2022/11/16 20:25:31;;;;;;;5.53;2.10;;;11.50;99.90;;;;;;10437412;28;20009;-61
2022/11/16 20:30:32;;;;;;;4.38;2.22;;;11.50;99.90;;;;;;10429044;28;20017;-60
2022/11/16 20:35:33;;;;;;;5.22;2.60;;;11.50;99.90;;;;;;10430835;28;20024;-60
2022/11/16 20:40:33;;;;;;;3.47;2.13;;;11.50;99.90;;;;;;10434727;28;20057;-60
2022/11/16 20:45:34;;;;;;;4.82;2.75;;;11.50;99.90;;;;;;10419341;28;20021;-61
2022/11/16 20:50:35;;;;;;;5.43;2.65;;;11.50;99.90;;;;;;10433662;28;20071;-62
2022/11/16 20:55:37;;;;;;;3.50;2.30;;;11.50;99.90;;;;;;10438619;28;20018;-60
2022/11/16 21:00:37;;;;;;;4.47;2.80;;;11.50;99.90;;;;;;10432902;28;20053;-60
2022/11/16 21:05:42;;;;;;;10.73;3.70;;;11.50;99.90;;;;;;10437978;28;20218;-60
2022/11/16 21:10:44;;;;;;;5.90;3.05;;;11.50;99.90;;;;;;10433786;28;20556;-60
2022/11/16 21:15:53;;;;;;;5.82;3.28;;;11.50;99.90;;;;;;10440668;28;20060;-65
2022/11/16 21:21:01;;;;;;;5.22;3.30;;;11.50;99.90;;;;;;10446247;28;20163;-60
2022/11/16 21:26:04;;;;;;;7.70;4.00;;;11.50;99.90;;;;;;10453557;28;20016;-64
2022/11/16 21:31:08;;;;;;;6.95;3.83;;;11.50;99.90;;;;;;10455040;28;20101;-61
2022/11/16 21:36:14;;;;;;;8.90;4.00;;;11.40;99.90;;;;;;10453542;28;20371;-61
2022/11/16 21:41:17;;;;;;;7.75;4.18;;;11.50;99.90;;;;;;10435336;28;20033;-61
2022/11/16 21:46:20;;;;;;;7.07;4.30;;;11.40;99.90;;;;;;10444729;28;20056;-63
2022/11/16 21:51:24;;;;;;;7.47;4.63;;;11.70;99.90;;;;;;10449099;28;20055;-61
2022/11/16 21:56:25;;;;;;;6.47;4.47;;;11.40;99.90;;;;;;10455611;28;20346;-60
2022/11/16 22:01:58;;;;;;;8.57;4.72;;;11.40;99.90;;;;;;10452549;28;20456;-61
2022/11/16 22:12:05;;;;;;;9.52;5.03;;;11.40;99.90;;;;;;10437837;28;20033;-61
2022/11/16 22:17:08;;;;;;;6.75;4.35;;;11.40;99.90;;;;;;10437768;28;20045;-61
2022/11/16 22:22:10;;;;;;;10.77;4.80;;;11.40;99.90;;;;;;10443553;28;20075;-61
2022/11/16 22:27:11;;;;;;;7.25;4.65;;;11.40;99.90;;;;;;10419170;28;20043;-61
2022/11/16 22:32:12;;;;;;;9.05;4.50;;;11.40;99.90;;;;;;10425028;28;20031;-61
2022/11/16 22:37:12;;;;;;;7.45;4.25;;;11.40;99.90;;;;;;10421070;28;20032;-61
2022/11/16 22:42:13;;;;;;;8.55;4.43;;;11.40;99.90;;;;;;10417033;28;20045;-61
2022/11/16 22:47:14;;;;;;;8.38;5.15;;;11.40;99.90;;;;;;10432838;28;20033;-60
2022/11/16 22:52:16;;;;;;;8.13;4.63;;;11.40;99.90;;;;;;10423661;28;20021;-62
2022/11/16 22:57:16;;;;;;;10.75;5.13;;;11.40;99.90;;;;;;10434647;28;20052;-63
2022/11/16 23:02:17;;;;;;;8.65;4.72;;;11.40;99.90;;;;;;10434360;28;20048;-63
2022/11/16 23:07:18;;;;;;;8.13;4.72;;;11.40;99.90;;;;;;10451685;28;20456;-62
2022/11/16 23:17:38;;;;;;;7.45;4.20;;;11.40;99.90;;;;;;10443729;28;20576;-61
2022/11/16 23:28:03;;;;;;;7.20;4.28;;;11.40;99.90;;;;;;10436533;28;20040;-61
2022/11/16 23:33:04;;;;;;;7.10;4.22;;;11.40;99.90;;;;;;10434054;28;20029;-61
2022/11/16 23:38:06;;;;;;;8.48;4.35;;;11.40;99.90;;;;;;10448189;28;20075;-61
2022/11/16 23:48:28;;;;;;;9.07;5.25;;;11.40;99.90;;;;;;10428041;28;20059;-61
2022/11/16 23:53:29;;;;;;;7.43;4.57;;;11.40;99.90;;;;;;10463722;28;20045;-61
2022/11/16 23:58:30;;;;;;;7.90;4.60;;;11.40;99.90;;;;;;10437637;28;20045;-61
